Latest Coastal Weather Observations for Geraldton Airport

IDW60701

Issued at 4:52 pm WST Thursday 11 February 2016 (issued every 10 minutes, with the page automatically refreshed every 10 minutes)

About coastal observations | Map of coastal stations | Coastal observations for WA | Marine services | Other Formats
Station Details ID: 008315 Name: GERALDTON AIRPORT Lat: -28.80 Lon: 114.70 Height: 29.7 m
Data from the previous 72 hours. | See also: Recent months at Geraldton Airport
Date/Time
WST
Temp

°C
Wind Pressure Rain
since 9am
mm
Weather Cloud Vis
km
Sea
Height
m
Swell
Dir
 
Speed
knots
Gust
knots
hPa Trend Height
m
Period
s
Dir
11/04:30pm 26.8 S 16 22 1011.2 - 0.0 - Mostly clear 10 - - - -
11/04:00pm 26.5 S 17 21 1011.3 - 0.0 - Mostly clear 10 - - - -
11/03:30pm 27.3 S 17 23 1011.2 - 0.0 - Mostly clear 10 - - - -
11/03:00pm 28.1 SSW 17 21 1011.0 R 0.0 Haze Mostly clear 20 - - - -
11/02:30pm 27.7 SSW 17 23 1011.4 - 0.0 - Mostly clear 10 - - - -
11/02:00pm 29.0 S 16 20 1011.5 - 0.0 - Mostly clear 10 - - - -
11/01:30pm 28.9 S 15 19 1011.5 - 0.0 - Mostly clear 10 - - - -
11/01:00pm 28.1 S 16 21 1011.9 - 0.0 - Mostly clear 10 - - - -
11/12:30pm 27.4 S 15 19 1012.2 - 0.0 - Mostly clear 10 - - - -
11/12:00pm 28.0 SSW 15 18 1012.0 R 0.0 Haze Mostly clear 20 - - - -
11/11:30am 27.5 SSW 15 19 1012.3 - 0.0 - Mostly clear 10 - - - -
11/11:00am 27.3 SSW 14 18 1012.2 - 0.0 - Mostly clear 10 - - - -
11/10:30am 28.2 S 13 16 1012.1 - 0.0 - Mostly clear 10 - - - -
11/10:00am 28.2 S 12 15 1012.2 - 0.0 - Mostly clear 10 - - - -
11/09:30am 28.5 SSW 11 13 1012.4 - 0.0 - Mostly clear 10 - - - -
11/09:00am 28.1 SSE 7 10 1012.3 F 0.0 Haze Mostly clear 25 - - - -
11/08:30am 26.0 SSE 8 10 1012.4 - 0.0 - Mostly clear 10 - - - -
11/08:00am 24.2 SSE 9 11 1012.4 - 0.0 - Mostly clear 10 - - - -
11/07:30am 23.8 ESE 7 9 1012.3 - 0.0 - Mostly clear 10 - - - -
11/07:00am 22.7 SSE 9 11 1012.1 - 0.0 - Partly cloudy 7 - - - -
11/06:30am 22.6 SE 8 9 1012.2 - 0.0 - Cloudy 9 - - - -
11/06:00am 22.4 SE 11 13 1011.8 F 0.0 Shallow fog Cloudy 7 - - - -
11/05:30am 22.5 SSE 10 13 1011.7 - 0.0 - Cloudy 10 - - - -
11/05:00am 22.6 SSE 10 13 1011.6 - 0.0 - Cloudy 10 - - - -
11/04:30am 22.7 SSE 11 13 1011.6 - 0.0 - Cloudy 10 - - - -
11/04:00am 22.7 SSE 8 11 1011.6 - 0.0 - Cloudy 10 - - - -
11/03:30am 22.4 S 6 10 1011.5 - 0.0 - Cloudy 10 - - - -
11/03:00am 22.6 S 7 9 1011.4 - 0.0 - Cloudy 10 - - - -
11/02:30am 22.3 SE 5 7 1011.3 - 0.0 - Cloudy 9 - - - -
11/02:00am 21.9 S 4 7 1011.5 - 0.0 - Cloudy 10 - - - -
11/01:30am 21.1 SSW 3 5 1011.5 - 0.0 - Partly cloudy 9 - - - -
11/01:29am 21.2 SSW 4 5 1011.5 - 0.0 - Partly cloudy 9 - - - -
11/01:24am 21.0 SW 5 5 1011.5 - 0.0 - Partly cloudy 9 - - - -
11/01:02am 20.5 S 2 4 1011.5 - 0.0 - - 6 - - - -
11/01:00am 20.4 S 1 4 1011.5 - 0.0 - - 7 - - - -
11/12:30am 20.9 SSE 3 5 1011.7 - 0.0 - - 8 - - - -
11/12:00am 20.7 SE 1 3 1011.7 - 0.0 - - 8 - - - -
 
Date/Time
WST
Temp

°C
Wind Pressure Rain
since 9am
mm
Weather Cloud Vis
km
Sea
Height
m
Swell
Dir
 
Speed
knots
Gust
knots
hPa Trend Height
m
Period
s
Dir
10/11:30pm 21.6 SSE 4 5 1012.1 - 0.0 - - 9 - - - -
10/11:00pm 22.2 SSE 5 6 1012.5 - 0.0 - - 10 - - - -
10/10:30pm 22.6 S 6 8 1012.5 - 0.0 - - 10 - - - -
10/10:00pm 22.8 S 7 8 1012.7 - 0.0 - - 10 - - - -
10/09:30pm 23.0 S 10 12 1012.6 - 0.0 - - 10 - - - -
10/09:00pm 23.1 S 10 12 1012.4 - 0.0 - - 10 - - - -
10/08:30pm 23.3 S 8 10 1012.6 - 0.0 - - 10 - - - -
10/08:00pm 23.5 SSE 11 15 1012.3 - 0.0 - - 10 - - - -
10/07:30pm 23.9 S 13 17 1012.1 - 0.0 - - 10 - - - -
10/07:00pm 24.4 S 15 17 1011.7 - 0.0 - - 10 - - - -
10/06:30pm 25.4 S 14 17 1011.4 - 0.0 - - 10 - - - -
10/06:00pm 26.2 S 13 15 1011.0 - 0.0 - - 10 - - - -
10/05:30pm 27.1 S 14 17 1011.2 - 0.0 - - 10 - - - -
10/05:00pm 27.5 S 13 18 1011.1 - 0.0 - Mostly clear 10 - - - -
10/04:30pm 28.5 S 14 19 1011.2 - 0.0 - Mostly clear 10 - - - -
10/04:00pm 29.1 S 15 19 1011.0 - 0.0 - Mostly clear 10 - - - -
10/03:30pm 28.4 S 16 19 1011.1 - 0.0 - Mostly clear 10 - - - -
10/03:00pm 28.6 SSW 15 20 1011.0 R 0.0 Haze Mostly clear 20 - - - -
10/02:30pm 28.9 SSW 13 18 1011.4 - 0.0 - Mostly clear 10 - - - -
10/02:00pm 29.4 S 13 17 1011.7 - 0.0 - Mostly clear 10 - - - -
10/01:30pm 29.7 S 13 19 1011.7 - 0.0 - Mostly clear 10 - - - -
10/01:00pm 30.3 S 11 16 1011.7 - 0.0 - - 10 - - - -
10/12:30pm 28.6 S 13 17 1012.0 - 0.0 - Mostly clear 10 - - - -
10/12:00pm 29.5 S 12 15 1012.2 F 0.0 Haze Mostly clear 20 - - - -
10/11:30am 28.7 S 11 17 1012.9 - 0.0 - Mostly clear 10 - - - -
10/11:00am 28.6 SSW 11 15 1013.1 - 0.0 - Mostly clear 10 - - - -
10/10:30am 28.3 SSW 9 14 1013.3 - 0.0 - Mostly clear 10 - - - -
10/10:00am 27.3 SSW 10 14 1013.4 - 0.0 - Mostly clear 10 - - - -
10/09:30am 26.6 SSW 9 13 1013.6 - 0.0 - Mostly clear 10 - - - -
10/09:00am 26.5 SSW 7 10 1013.4 S 0.0 Haze Mostly clear 20 - - - -
10/08:30am 25.4 S 5 8 1013.6 - 0.0 - Mostly clear 10 - - - -
10/08:00am 24.3 SSE 9 13 1013.4 - 0.0 - Mostly clear 10 - - - -
10/07:30am 23.4 SE 9 11 1013.7 - 0.0 - Partly cloudy 10 - - - -
10/07:18am 23.1 SSE 11 14 1013.4 - 0.0 - Partly cloudy 10 - - - -
10/07:00am 23.0 SE 11 14 1013.1 - 0.0 - Mostly cloudy 10 - - - -
10/06:30am 22.3 SSE 10 14 1013.0 - 0.0 - Mostly cloudy 10 - - - -
10/06:00am 22.4 SSE 12 16 1012.7 F 0.0 Haze Cloudy 9 - - - -
10/05:30am 22.5 S 9 13 1012.8 - 0.0 - Cloudy 10 - - - -
10/05:00am 22.6 S 11 15 1012.6 - 0.0 - Cloudy 10 - - - -
10/04:30am 22.7 S 11 13 1012.5 - 0.0 - Cloudy 10 - - - -
10/04:00am 22.6 S 11 13 1012.4 - 0.0 - Cloudy 10 - - - -
10/03:30am 22.6 S 10 12 1012.6 - 0.0 - Cloudy 10 - - - -
10/03:00am 22.4 SE 10 14 1012.3 - 0.0 - Cloudy 10 - - - -
10/02:30am 22.2 S 7 10 1012.3 - 0.0 - Partly cloudy 10 - - - -
10/02:16am 21.4 SSW 5 8 1012.3 - 0.0 - Partly cloudy 9 - - - -
10/02:00am 21.1 S 5 7 1012.4 - 0.0 - - 9 - - - -
10/01:30am 20.5 S 5 6 1012.8 - 0.0 - - 9 - - - -
10/01:00am 20.3 SE 4 5 1013.4 - 0.0 - - 10 - - - -
10/12:30am 21.3 S 1 6 1013.4 - 0.0 - - 10 - - - -
10/12:00am 22.0 S 4 5 1013.3 - 0.0 - - 10 - - - -
 
Date/Time
WST
Temp

°C
Wind Pressure Rain
since 9am
mm
Weather Cloud Vis
km
Sea
Height
m
Swell
Dir
 
Speed
knots
Gust
knots
hPa Trend Height
m
Period
s
Dir
09/11:30pm 22.2 S 3 5 1013.6 - 0.0 - - 10 - - - -
09/11:00pm 22.6 S 5 7 1013.6 - 0.0 - - 10 - - - -
09/10:30pm 23.1 S 8 11 1013.7 - 0.0 - - 10 - - - -
09/10:00pm 23.5 S 11 14 1013.8 - 0.0 - - 10 - - - -
09/09:30pm 23.7 S 11 13 1013.6 - 0.0 - - 10 - - - -
09/09:00pm 23.6 S 7 11 1013.4 - 0.0 - - 10 - - - -
09/08:30pm 23.9 SSE 9 11 1013.2 - 0.0 - - 10 - - - -
09/08:00pm 24.3 S 11 14 1013.0 - 0.0 - - 10 - - - -
09/07:30pm 24.8 S 13 16 1013.1 - 0.0 - - 10 - - - -
09/07:00pm 25.6 S 14 17 1012.7 - 0.0 - - 10 - - - -
09/06:30pm 26.7 S 15 19 1012.3 - 0.0 - - 10 - - - -
09/06:00pm 27.7 S 15 19 1011.9 - 0.0 - - 10 - - - -
09/05:30pm 29.1 S 15 19 1011.8 - 0.0 - - 10 - - - -
09/05:00pm 30.4 S 15 19 1011.7 - 0.0 - - 10 - - - -
09/04:30pm 31.5 S 13 17 1011.7 - 0.0 - - 10 - - - -
09/04:00pm 31.4 S 14 19 1011.6 - 0.0 - - 10 - - - -
09/03:30pm 33.9 S 14 18 1011.6 - 0.0 - - 10 - - - -
09/03:00pm 34.4 SSW 12 16 1011.6 R 0.0 Fine Clear 30 - - - -
09/02:30pm 35.9 SW 12 16 1011.8 - 0.0 - - 10 - - - -
09/02:00pm 36.7 SSW 14 18 1012.0 - 0.0 - - 10 - - - -
09/01:30pm 37.4 SW 15 19 1012.0 - 0.0 - - 10 - - - -
09/01:00pm 37.3 SW 13 18 1012.2 - 0.0 - - 10 - - - -
09/12:30pm 36.6 SW 13 18 1012.4 - 0.0 - - 10 - - - -
09/12:00pm 35.8 SW 12 16 1012.3 R 0.0 Fine Mostly clear 30 - - - -
09/11:30am 34.7 SW 12 16 1012.7 - 0.0 - - 10 - - - -
09/11:00am 34.8 SW 13 16 1012.7 - 0.0 - - 10 - - - -
09/10:30am 35.7 WSW 12 15 1012.8 - 0.0 - - 10 - - - -
09/10:00am 35.8 WSW 7 11 1012.9 - 0.0 - - 10 - - - -
09/09:30am 35.9 S 2 4 1013.1 - 0.0 - - 10 - - - -
09/09:00am 32.9 W 4 6 1013.1 R 0.0 Fine Clear 30 - - - -
09/08:30am 30.2 W 2 5 1013.3 - 0.0 - - 10 - - - -
09/08:00am 27.8 WSW 3 4 1013.3 - 0.0 - - 10 - - - -
09/07:30am 25.7 CALM 0 0 1013.3 - 0.0 - - 10 - - - -
09/07:00am 22.3 NNE 1 3 1013.2 - 0.0 - - 10 - - - -
09/06:30am 20.2 N 2 5 1012.9 - 0.0 - - 10 - - - -
09/06:00am 19.3 NNE 4 5 1012.2 R 0.0 Fine Clear 30 - - - -
09/05:30am 19.6 N 7 9 1012.3 - 0.0 - - 10 - - - -
09/05:00am 19.4 NE 7 8 1011.8 - 0.0 - - 10 - - - -
09/04:30am 18.8 NNE 4 5 1011.6 - 0.0 - - 10 - - - -
09/04:00am 18.5 E 3 6 1011.5 - 0.0 - - 10 - - - -
09/03:30am 19.7 ENE 5 6 1011.3 - 0.0 - - 10 - - - -
09/03:00am 20.9 NNE 4 5 1011.2 - 0.0 - - 10 - - - -
09/02:30am 20.4 SSE 1 5 1011.5 - 0.0 - - 10 - - - -
09/02:00am 20.4 CALM 0 2 1011.6 - 0.0 - - 10 - - - -
09/01:30am 22.1 SSW 3 4 1011.8 - 0.0 - - 10 - - - -
09/01:00am 22.0 NW 5 6 1011.8 - 0.0 - - 10 - - - -
09/12:30am 20.7 ENE 1 4 1012.0 - 0.0 - - 10 - - - -
09/12:00am 22.4 S 5 5 1012.0 - 0.0 - - 10 - - - -
 
Date/Time
WST
Temp

°C
Wind Pressure Rain
since 9am
mm
Weather Cloud Vis
km
Sea
Height
m
Swell
Dir
 
Speed
knots
Gust
knots
hPa Trend Height
m
Period
s
Dir
08/11:30pm 21.8 SE 1 4 1012.6 - 0.0 - - 10 - - - -
08/11:00pm 22.6 ESE 4 5 1012.8 - 0.0 - - 10 - - - -
08/10:30pm 23.5 SE 6 7 1013.0 - 0.0 - - 10 - - - -
08/10:00pm 25.0 SSE 7 9 1013.0 - 0.0 - - 10 - - - -
08/09:30pm 25.9 SSE 9 11 1012.9 - 0.0 - - 10 - - - -
08/09:00pm 26.3 SSE 11 14 1012.5 - 0.0 - - 10 - - - -
08/08:30pm 26.8 SSE 12 14 1012.5 - 0.0 - - 10 - - - -
08/08:00pm 27.4 SSE 9 13 1012.3 - 0.0 - - 10 - - - -
08/07:30pm 28.2 SSE 11 15 1011.9 - 0.0 - - 10 - - - -
08/07:00pm 29.5 SSE 12 16 1011.6 - 0.0 - - 10 - - - -
08/06:30pm 30.9 S 13 17 1011.2 - 0.0 - - 10 - - - -
08/06:00pm 31.2 S 16 20 1010.6 - 0.0 - - 10 - - - -
08/05:30pm 33.3 SW 16 21 1009.8 - 0.0 - - 10 - - - -
08/05:00pm 35.2 SW 15 19 1009.9 - 0.0 - - 10 - - - -

Other Formats:

Comma delimited format used in spreadsheet applications
http://www.bom.gov.au/fwo/IDW60701/IDW60701.94403.axf

JavaScript Object Notation format (JSON) in row-major order
http://www.bom.gov.au/fwo/IDW60701/IDW60701.94403.json